createdAt,value
2018-11-01T00:00:23.537Z,84.21
2018-11-01T00:02:49.866Z,84.52
2018-11-01T00:05:16.172Z,84.66
2018-11-01T00:07:42.503Z,84.84
2018-11-01T00:10:08.903Z,84.86
2018-11-01T00:12:35.213Z,84.71
2018-11-01T00:15:01.537Z,84.68
2018-11-01T00:17:28.019Z,84.84
2018-11-01T00:19:54.170Z,85.52
2018-11-01T00:22:20.473Z,85.21
2018-11-01T00:24:46.798Z,84.82
2018-11-01T00:27:13.163Z,84.99
2018-11-01T00:29:39.486Z,85.38
2018-11-01T00:32:05.786Z,85.68
2018-11-01T00:34:32.089Z,85.50
2018-11-01T00:36:58.419Z,85.59
2018-11-01T00:39:24.722Z,85.76
2018-11-01T00:41:51.060Z,85.54
2018-11-01T00:44:17.382Z,85.14
2018-11-01T00:46:43.682Z,84.84
2018-11-01T00:49:10.011Z,84.96
2018-11-01T00:51:36.334Z,85.55
2018-11-01T00:54:02.679Z,85.24
2018-11-01T00:56:28.997Z,84.83
2018-11-01T00:58:55.296Z,84.42
2018-11-01T01:01:21.641Z,84.33
2018-11-01T01:03:47.968Z,86.13
2018-11-01T01:06:14.273Z,86.77
2018-11-01T01:08:40.598Z,85.96
2018-11-01T01:11:06.933Z,86.09
2018-11-01T01:13:33.231Z,85.79
2018-11-01T01:15:59.626Z,85.85
2018-11-01T01:18:25.954Z,85.51
2018-11-01T01:20:52.281Z,85.66
2018-11-01T01:23:18.611Z,85.82
2018-11-01T01:25:44.934Z,85.34
2018-11-01T01:28:11.241Z,85.31
2018-11-01T01:30:37.563Z,85.34
2018-11-01T01:33:03.901Z,84.47
2018-11-01T01:35:30.209Z,84.15
2018-11-01T01:37:56.515Z,84.17
2018-11-01T01:40:22.842Z,84.35
2018-11-01T01:42:49.171Z,82.78
2018-11-01T01:45:15.475Z,83.13
2018-11-01T01:47:41.776Z,82.17
2018-11-01T01:50:08.102Z,83.28
2018-11-01T01:52:34.448Z,84.07
2018-11-01T01:55:00.777Z,84.47
2018-11-01T01:57:27.076Z,84.78
2018-11-01T01:59:53.376Z,85.36
2018-11-01T02:02:19.722Z,85.31
2018-11-01T02:04:46.025Z,85.44
2018-11-01T02:07:12.348Z,85.64
2018-11-01T02:09:38.653Z,85.65
2018-11-01T02:12:04.957Z,85.94
2018-11-01T02:14:31.282Z,86.23
2018-11-01T02:16:57.584Z,86.72
2018-11-01T02:19:23.889Z,87.00
2018-11-01T02:21:50.198Z,86.72
2018-11-01T02:24:16.520Z,86.96
2018-11-01T02:26:42.854Z,86.71
2018-11-01T02:29:09.180Z,87.11
2018-11-01T02:31:35.512Z,87.49
2018-11-01T02:34:01.880Z,85.44
2018-11-01T02:36:28.180Z,85.06
2018-11-01T02:38:54.530Z,85.50
2018-11-01T02:41:20.830Z,86.39
2018-11-01T02:43:47.141Z,86.14
2018-11-01T02:46:13.445Z,85.93
2018-11-01T02:48:39.749Z,85.49
2018-11-01T02:51:06.082Z,85.72
2018-11-01T02:53:32.401Z,87.02
2018-11-01T02:55:58.795Z,87.05
2018-11-01T02:58:25.100Z,86.28
2018-11-01T03:00:51.405Z,85.07
2018-11-01T03:03:17.734Z,84.83
2018-11-01T03:05:44.062Z,85.79
2018-11-01T03:08:10.368Z,85.70
2018-11-01T03:10:36.673Z,86.42
2018-11-01T03:13:03.020Z,84.89
2018-11-01T03:15:29.322Z,84.61
2018-11-01T03:17:55.625Z,84.94
2018-11-01T03:20:21.935Z,85.36
2018-11-01T03:22:48.228Z,86.19
2018-11-01T03:25:14.558Z,85.67
2018-11-01T03:27:40.867Z,86.28
2018-11-01T03:30:07.195Z,85.97
2018-11-01T03:32:33.529Z,86.53
2018-11-01T03:34:59.860Z,86.81
2018-11-01T03:37:26.164Z,85.17
2018-11-01T03:39:52.471Z,84.94
2018-11-01T03:42:18.805Z,85.64
2018-11-01T03:44:45.109Z,85.90
2018-11-01T03:47:11.458Z,86.72
2018-11-01T03:49:37.792Z,86.50
2018-11-01T03:52:04.331Z,87.38
2018-11-01T03:54:30.558Z,85.99
2018-11-01T03:56:56.860Z,86.12
2018-11-01T03:59:23.162Z,86.34
2018-11-01T04:01:49.466Z,86.43
2018-11-01T04:04:15.769Z,86.98
2018-11-01T04:06:42.156Z,86.71
2018-11-01T04:09:08.489Z,86.07
2018-11-01T04:11:34.809Z,85.30
2018-11-01T04:14:01.110Z,84.81
2018-11-01T04:16:27.444Z,84.99
2018-11-01T04:18:53.741Z,84.75
2018-11-01T04:21:20.049Z,85.33
2018-11-01T04:23:46.383Z,85.77
2018-11-01T04:26:12.692Z,85.84
2018-11-01T04:28:39.031Z,86.32
2018-11-01T04:31:05.338Z,85.59
2018-11-01T04:33:31.766Z,85.42
2018-11-01T04:35:58.033Z,84.68
2018-11-01T04:38:24.338Z,84.31
2018-11-01T04:40:50.664Z,84.41
2018-11-01T04:43:16.978Z,83.99
2018-11-01T04:45:43.278Z,84.15
2018-11-01T04:48:09.587Z,83.94
2018-11-01T04:50:35.909Z,84.27
2018-11-01T04:53:02.233Z,84.36
2018-11-01T04:55:28.568Z,84.84
2018-11-01T04:57:54.890Z,84.37
2018-11-01T05:00:21.247Z,84.35
2018-11-01T05:02:47.555Z,83.74
2018-11-01T05:05:14.030Z,83.16
2018-11-01T05:07:40.218Z,82.39
2018-11-01T05:10:06.549Z,82.01
2018-11-01T05:12:32.896Z,81.88
2018-11-01T05:14:59.225Z,82.80
2018-11-01T05:17:25.509Z,82.76
2018-11-01T05:19:51.837Z,82.55
2018-11-01T05:22:18.150Z,83.21
2018-11-01T05:24:44.546Z,82.27
2018-11-01T05:27:10.839Z,82.51
2018-11-01T05:29:37.183Z,81.95
2018-11-01T05:32:03.444Z,81.30
2018-11-01T05:34:29.816Z,81.41
2018-11-01T05:36:56.104Z,81.55
2018-11-01T05:39:22.431Z,82.08
2018-11-01T05:41:48.741Z,81.55
2018-11-01T05:44:15.062Z,81.69
2018-11-01T05:46:41.364Z,81.49
2018-11-01T05:49:07.695Z,81.48
2018-11-01T05:51:34.026Z,81.32
2018-11-01T05:54:00.341Z,81.51
2018-11-01T05:56:26.645Z,80.63
2018-11-01T05:58:52.973Z,79.62
2018-11-01T06:01:19.300Z,79.54
2018-11-01T06:03:45.629Z,79.64
2018-11-01T06:06:11.965Z,79.78
2018-11-01T06:08:38.314Z,79.73
2018-11-01T06:11:04.608Z,78.82
2018-11-01T06:13:30.934Z,78.25
2018-11-01T06:15:57.245Z,77.92
2018-11-01T06:18:23.571Z,78.53
2018-11-01T06:20:49.923Z,77.93
2018-11-01T06:23:16.228Z,78.00
2018-11-01T06:25:42.557Z,78.02
2018-11-01T06:28:08.896Z,78.11
2018-11-01T06:30:35.223Z,77.86
2018-11-01T06:33:01.534Z,77.90
2018-11-01T06:35:27.874Z,77.97
2018-11-01T06:37:54.171Z,77.98
2018-11-01T06:40:20.502Z,78.13
2018-11-01T06:42:46.834Z,78.19
2018-11-01T06:45:13.161Z,78.33
2018-11-01T06:47:39.491Z,78.33
2018-11-01T06:50:05.843Z,78.27
2018-11-01T06:52:32.185Z,78.30
2018-11-01T06:54:58.466Z,78.60
2018-11-01T06:57:24.804Z,78.76
2018-11-01T06:59:51.128Z,78.57
2018-11-01T07:02:17.431Z,78.72
2018-11-01T07:04:43.737Z,78.56
2018-11-01T07:07:10.040Z,78.46
2018-11-01T07:09:36.365Z,78.65
2018-11-01T07:12:02.674Z,78.41
2018-11-01T07:14:28.995Z,77.62
2018-11-01T07:16:55.377Z,76.85
2018-11-01T07:19:21.622Z,76.29
2018-11-01T07:21:47.946Z,76.20
2018-11-01T07:24:14.280Z,75.26
2018-11-01T07:26:40.653Z,75.76
2018-11-01T07:29:06.951Z,75.08
2018-11-01T07:31:33.285Z,74.07
2018-11-01T07:33:59.646Z,74.08
2018-11-01T07:36:25.968Z,73.78
2018-11-01T07:38:52.276Z,73.45
2018-11-01T07:41:18.607Z,71.82
2018-11-01T07:43:44.938Z,71.75
2018-11-01T07:46:11.255Z,70.62
2018-11-01T07:48:37.640Z,69.70
2018-11-01T07:51:03.924Z,68.27
2018-11-01T07:53:30.261Z,67.02
2018-11-01T07:55:56.568Z,66.71
2018-11-01T07:58:22.946Z,66.14
2018-11-01T08:00:49.202Z,66.58
2018-11-01T08:03:15.519Z,66.76
2018-11-01T08:05:41.850Z,67.23
2018-11-01T08:08:08.152Z,66.77
2018-11-01T08:10:34.455Z,67.29
2018-11-01T08:13:00.771Z,67.32
2018-11-01T08:15:27.099Z,66.63
2018-11-01T08:17:53.422Z,66.68
2018-11-01T08:20:19.966Z,66.63
2018-11-01T08:22:46.058Z,66.17
2018-11-01T08:25:12.415Z,66.97
2018-11-01T08:27:38.728Z,65.39
2018-11-01T08:30:05.043Z,65.27
2018-11-01T08:32:31.453Z,65.51
2018-11-01T08:34:57.788Z,65.82
2018-11-01T08:37:24.087Z,65.72
2018-11-01T08:39:50.396Z,65.73
2018-11-01T08:42:16.725Z,66.01
2018-11-01T08:44:43.091Z,66.12
2018-11-01T08:47:09.392Z,65.07
2018-11-01T08:49:35.787Z,65.07
2018-11-01T08:52:02.061Z,65.55
2018-11-01T08:54:28.373Z,65.54
2018-11-01T08:56:54.699Z,65.01
2018-11-01T08:59:21.007Z,63.74
2018-11-01T09:01:47.389Z,62.69
2018-11-01T09:04:13.713Z,61.40
2018-11-01T09:06:40.015Z,61.03
2018-11-01T09:09:06.356Z,60.85
2018-11-01T09:11:32.683Z,60.59
2018-11-01T09:13:59.053Z,61.34
2018-11-01T09:16:25.359Z,61.71
2018-11-01T09:18:51.733Z,61.54
2018-11-01T09:21:18.055Z,61.83
2018-11-01T09:23:44.379Z,61.71
2018-11-01T09:26:10.706Z,60.05
2018-11-01T09:28:37.063Z,60.62
2018-11-01T09:31:03.419Z,59.82
2018-11-01T09:33:29.722Z,58.90
2018-11-01T09:35:56.020Z,58.91
2018-11-01T09:38:22.327Z,58.76
2018-11-01T09:40:48.647Z,58.70
2018-11-01T09:43:14.954Z,57.85
2018-11-01T09:45:41.290Z,55.64
2018-11-01T09:48:07.586Z,54.47
2018-11-01T09:50:33.961Z,54.26
2018-11-01T09:53:00.260Z,52.58
2018-11-01T09:55:26.689Z,51.89
2018-11-01T09:57:53.039Z,52.34
2018-11-01T10:00:19.342Z,53.83
2018-11-01T10:02:45.649Z,55.83
2018-11-01T10:05:11.953Z,56.84
2018-11-01T10:07:38.265Z,57.54
2018-11-01T10:10:04.671Z,58.02
2018-11-01T10:12:30.965Z,58.06
2018-11-01T10:14:57.330Z,57.94
2018-11-01T10:17:23.955Z,58.01
2018-11-01T10:19:49.901Z,57.85
2018-11-01T10:22:16.240Z,57.53
2018-11-01T10:24:42.514Z,58.36
2018-11-01T10:27:08.838Z,58.33
2018-11-01T10:29:35.172Z,59.09
2018-11-01T10:32:01.502Z,58.77
2018-11-01T10:34:27.804Z,58.50
2018-11-01T10:36:54.165Z,58.55
2018-11-01T10:39:20.491Z,58.37
2018-11-01T10:41:46.789Z,58.36
2018-11-01T10:44:13.092Z,58.28
2018-11-01T10:46:39.427Z,57.88
2018-11-01T10:49:05.754Z,57.53
2018-11-01T10:51:32.090Z,57.37
2018-11-01T10:53:58.482Z,57.55
2018-11-01T10:56:24.766Z,57.75
2018-11-01T10:58:51.072Z,57.07
2018-11-01T11:01:17.587Z,57.36
2018-11-01T11:03:43.740Z,56.85
2018-11-01T11:06:10.046Z,56.84
2018-11-01T11:08:36.407Z,56.40
2018-11-01T11:11:02.740Z,56.36
2018-11-01T11:13:29.040Z,56.10
2018-11-01T11:15:55.350Z,55.98
2018-11-01T11:18:21.710Z,56.24
2018-11-01T11:20:48.270Z,56.16
2018-11-01T11:23:14.333Z,56.44
2018-11-01T11:25:40.671Z,56.69
2018-11-01T11:28:06.996Z,56.16
2018-11-01T11:30:33.455Z,56.25
2018-11-01T11:32:59.636Z,56.09
2018-11-01T11:35:25.998Z,55.81
2018-11-01T11:37:52.282Z,55.93
2018-11-01T11:40:18.621Z,55.52
2018-11-01T11:42:44.949Z,55.29
2018-11-01T11:45:11.251Z,55.03
2018-11-01T11:47:37.584Z,54.52
2018-11-01T11:50:03.913Z,54.42
2018-11-01T11:52:30.246Z,54.31
2018-11-01T11:54:56.578Z,54.09
2018-11-01T11:57:22.881Z,54.04
2018-11-01T11:59:49.193Z,53.85
2018-11-01T12:02:15.562Z,53.96
2018-11-01T12:04:41.827Z,53.63
2018-11-01T12:07:08.167Z,53.84
2018-11-01T12:09:34.472Z,53.49
2018-11-01T12:12:00.797Z,53.52
2018-11-01T12:14:27.136Z,53.53
2018-11-01T12:16:53.407Z,53.47
2018-11-01T12:19:19.708Z,53.70
2018-11-01T12:21:46.013Z,54.08
2018-11-01T12:24:12.318Z,53.68
2018-11-01T12:26:38.615Z,53.41
2018-11-01T12:29:04.981Z,53.68
2018-11-01T12:31:31.257Z,53.71
2018-11-01T12:33:57.567Z,53.68
2018-11-01T12:36:23.905Z,53.60
2018-11-01T12:38:50.235Z,53.86
2018-11-01T12:41:16.566Z,54.12
2018-11-01T12:43:42.929Z,54.28
2018-11-01T12:46:09.255Z,54.02
2018-11-01T12:48:35.562Z,54.14
2018-11-01T12:51:01.882Z,54.33
2018-11-01T12:53:28.183Z,54.37
2018-11-01T12:55:54.542Z,54.31
2018-11-01T12:58:20.874Z,54.24
2018-11-01T13:00:47.175Z,53.99
2018-11-01T13:03:13.505Z,54.02
2018-11-01T13:05:39.822Z,54.00
2018-11-01T13:08:06.121Z,53.86
2018-11-01T13:10:32.482Z,53.68
2018-11-01T13:12:58.798Z,53.61
2018-11-01T13:15:25.100Z,53.54
2018-11-01T13:17:51.526Z,53.63
2018-11-01T13:20:17.770Z,53.69
2018-11-01T13:22:44.099Z,53.55
2018-11-01T13:25:10.436Z,53.53
2018-11-01T13:27:36.786Z,53.49
2018-11-01T13:30:03.115Z,53.49
2018-11-01T13:32:29.447Z,53.37
2018-11-01T13:34:55.855Z,53.28
2018-11-01T13:37:22.081Z,53.24
2018-11-01T13:39:48.528Z,53.44
2018-11-01T13:42:14.687Z,53.46
2018-11-01T13:44:41.012Z,53.56
2018-11-01T13:47:07.369Z,53.72
2018-11-01T13:49:33.672Z,53.85
2018-11-01T13:52:00.053Z,53.97
2018-11-01T13:54:26.390Z,54.07
2018-11-01T13:56:52.696Z,54.24
2018-11-01T13:59:19.019Z,54.00
2018-11-01T14:01:45.366Z,53.96
2018-11-01T14:04:11.687Z,53.87
2018-11-01T14:06:38.011Z,54.04
2018-11-01T14:09:04.338Z,53.99
2018-11-01T14:11:30.634Z,54.14
2018-11-01T14:13:57.460Z,54.23
2018-11-01T14:16:23.326Z,54.32
2018-11-01T14:18:49.605Z,54.44
2018-11-01T14:21:15.933Z,54.55
2018-11-01T14:23:42.230Z,54.73
2018-11-01T14:26:08.541Z,54.90
2018-11-01T14:28:34.867Z,55.08
2018-11-01T14:31:01.218Z,55.23
2018-11-01T14:33:27.502Z,55.43
2018-11-01T14:35:53.803Z,55.64
2018-11-01T14:38:20.103Z,55.80
2018-11-01T14:40:46.427Z,55.99
2018-11-01T14:43:12.735Z,56.16
2018-11-01T14:45:39.042Z,56.27
2018-11-01T14:48:05.369Z,56.37
2018-11-01T14:50:31.678Z,56.59
2018-11-01T14:52:58.636Z,56.74
2018-11-01T14:55:25.342Z,56.94
2018-11-01T14:57:52.151Z,57.15
2018-11-01T15:00:16.941Z,57.18
2018-11-01T15:02:43.338Z,57.28
2018-11-01T15:05:09.544Z,57.42
2018-11-01T15:07:35.848Z,57.60
2018-11-01T15:10:02.193Z,57.74
2018-11-01T15:12:28.514Z,57.79
2018-11-01T15:14:54.872Z,57.72
2018-11-01T15:17:21.174Z,57.87
2018-11-01T15:19:47.535Z,57.75
2018-11-01T15:22:13.850Z,57.85
2018-11-01T15:24:40.148Z,58.07
2018-11-01T15:27:06.476Z,58.41
2018-11-01T15:29:32.808Z,58.66
2018-11-01T15:31:59.152Z,58.91
2018-11-01T15:34:25.459Z,59.05
2018-11-01T15:36:51.797Z,58.80
2018-11-01T15:39:18.119Z,58.68
2018-11-01T15:41:44.444Z,58.75
2018-11-01T15:44:10.814Z,58.77
2018-11-01T15:46:37.142Z,58.83
2018-11-01T15:49:03.518Z,58.87
2018-11-01T15:51:29.842Z,59.05
2018-11-01T15:53:56.150Z,59.41
2018-11-01T15:56:22.563Z,59.55
2018-11-01T15:58:48.832Z,59.79
2018-11-01T16:01:15.154Z,59.75
2018-11-01T16:03:41.510Z,60.02
2018-11-01T16:06:07.866Z,60.07
2018-11-01T16:08:34.189Z,60.21
2018-11-01T16:11:00.497Z,60.07
2018-11-01T16:13:26.806Z,60.19
2018-11-01T16:15:53.111Z,59.64
2018-11-01T16:18:19.434Z,59.75
2018-11-01T16:20:45.742Z,59.85
2018-11-01T16:23:12.124Z,59.99
2018-11-01T16:25:38.393Z,60.34
2018-11-01T16:28:04.730Z,60.66
2018-11-01T16:30:31.098Z,60.73
2018-11-01T16:32:57.396Z,60.67
2018-11-01T16:35:23.703Z,60.66
2018-11-01T16:37:50.035Z,60.85
2018-11-01T16:40:16.357Z,61.02
2018-11-01T16:42:42.862Z,61.18
2018-11-01T16:45:09.091Z,61.32
2018-11-01T16:47:35.342Z,61.42
2018-11-01T16:50:01.700Z,61.72
2018-11-01T16:52:27.999Z,61.90
2018-11-01T16:54:54.297Z,62.08
2018-11-01T16:57:20.623Z,62.30
2018-11-01T16:59:46.913Z,62.44
2018-11-01T17:02:13.246Z,62.79
2018-11-01T17:04:39.568Z,62.97
2018-11-01T17:07:05.889Z,63.23
2018-11-01T17:09:32.246Z,63.85
2018-11-01T17:11:58.582Z,64.38
2018-11-01T17:14:24.907Z,64.74
2018-11-01T17:16:51.213Z,64.84
2018-11-01T17:19:17.534Z,65.94
2018-11-01T17:21:43.857Z,66.76
2018-11-01T17:24:10.199Z,66.91
2018-11-01T17:26:36.470Z,66.70
2018-11-01T17:29:02.821Z,67.13
2018-11-01T17:31:29.131Z,66.40
2018-11-01T17:33:55.535Z,66.63
2018-11-01T17:36:21.817Z,66.54
2018-11-01T17:38:48.124Z,66.01
2018-11-01T17:41:14.454Z,66.06
2018-11-01T17:43:40.749Z,65.99
2018-11-01T17:46:07.219Z,65.71
2018-11-01T17:48:33.383Z,65.60
2018-11-01T17:50:59.751Z,65.30
2018-11-01T17:53:26.054Z,65.12
2018-11-01T17:55:52.356Z,64.89
2018-11-01T17:58:18.692Z,65.04
2018-11-01T18:00:44.988Z,64.66
2018-11-01T18:03:11.352Z,64.69
2018-11-01T18:05:37.652Z,64.65
2018-11-01T18:08:03.974Z,64.52
2018-11-01T18:10:30.280Z,64.28
2018-11-01T18:12:56.608Z,64.33
2018-11-01T18:15:22.930Z,64.35
2018-11-01T18:17:49.239Z,64.58
2018-11-01T18:20:15.544Z,64.55
2018-11-01T18:22:41.846Z,64.45
2018-11-01T18:25:08.175Z,64.40
2018-11-01T18:27:34.481Z,64.31
2018-11-01T18:30:00.811Z,64.19
2018-11-01T18:32:27.251Z,64.29
2018-11-01T18:34:53.444Z,64.38
2018-11-01T18:37:19.767Z,64.47
2018-11-01T18:39:46.109Z,64.60
2018-11-01T18:42:12.473Z,64.80
2018-11-01T18:44:38.774Z,64.76
2018-11-01T18:47:05.171Z,64.87
2018-11-01T18:49:31.476Z,64.98
2018-11-01T18:51:57.798Z,65.15
2018-11-01T18:54:24.189Z,65.11
2018-11-01T18:56:50.439Z,65.33
2018-11-01T18:59:16.808Z,65.50
2018-11-01T19:01:43.110Z,65.73
2018-11-01T19:04:09.437Z,65.89
2018-11-01T19:06:35.765Z,66.11
2018-11-01T19:09:02.069Z,66.13
2018-11-01T19:11:28.422Z,66.37
2018-11-01T19:16:21.028Z,66.55
2018-11-01T19:18:47.353Z,66.57
2018-11-01T19:21:13.656Z,66.75
2018-11-01T19:23:39.956Z,66.90
2018-11-01T19:26:06.281Z,66.90
2018-11-01T19:28:32.581Z,66.99
2018-11-01T19:30:58.904Z,67.20
2018-11-01T19:33:25.248Z,67.35
2018-11-01T19:35:51.574Z,67.37
2018-11-01T19:38:17.874Z,67.63
2018-11-01T19:40:44.180Z,67.55
2018-11-01T19:43:10.509Z,67.66
2018-11-01T19:45:36.816Z,67.70
2018-11-01T19:48:03.121Z,67.85
2018-11-01T19:50:29.486Z,67.88
2018-11-01T19:52:55.785Z,67.94
2018-11-01T19:55:22.088Z,68.19
2018-11-01T19:57:48.424Z,68.27
2018-11-01T20:00:14.761Z,68.49
2018-11-01T20:02:41.106Z,68.53
2018-11-01T20:05:07.428Z,68.61
2018-11-01T20:07:33.755Z,68.56
2018-11-01T20:10:00.136Z,68.31
2018-11-01T20:12:26.424Z,68.21
2018-11-01T20:14:52.824Z,68.23
2018-11-01T20:17:19.057Z,68.25
2018-11-01T20:19:45.454Z,68.30
2018-11-01T20:22:11.789Z,68.18
2018-11-01T20:24:38.062Z,67.92
2018-11-01T20:27:04.473Z,67.90
2018-11-01T20:29:30.796Z,68.02
2018-11-01T20:31:57.128Z,68.01
2018-11-01T20:34:24.012Z,68.13
2018-11-01T20:36:50.402Z,68.22
2018-11-01T20:39:16.735Z,68.25
2018-11-01T20:41:43.112Z,68.35
2018-11-01T20:44:09.545Z,68.59
2018-11-01T20:46:35.909Z,68.99
2018-11-01T20:49:02.274Z,69.33
2018-11-01T20:51:28.698Z,69.45
2018-11-01T20:53:55.009Z,69.93
2018-11-01T20:56:21.319Z,70.12
2018-11-01T20:58:47.651Z,70.14
2018-11-01T21:01:13.959Z,70.22
2018-11-01T21:03:40.270Z,70.41
2018-11-01T21:06:06.574Z,70.65
2018-11-01T21:08:32.874Z,70.67
2018-11-01T21:10:59.196Z,70.79
2018-11-01T21:13:25.493Z,71.61
2018-11-01T21:15:51.796Z,72.33
2018-11-01T21:18:18.160Z,73.37
2018-11-01T21:20:44.468Z,74.14
2018-11-01T21:23:10.885Z,74.97
2018-11-01T21:25:37.193Z,75.48
2018-11-01T21:28:03.536Z,76.44
2018-11-01T21:30:29.827Z,77.25
2018-11-01T21:32:56.144Z,77.76
2018-11-01T21:35:22.510Z,78.42
2018-11-01T21:37:48.831Z,78.71
2018-11-01T21:40:15.158Z,78.97
2018-11-01T21:42:41.466Z,79.18
2018-11-01T21:45:07.800Z,79.43
2018-11-01T21:47:34.129Z,79.79
2018-11-01T21:50:00.435Z,79.89
2018-11-01T21:52:26.850Z,79.66
2018-11-01T21:54:53.194Z,80.07
2018-11-01T21:57:19.476Z,80.46
2018-11-01T21:59:45.798Z,80.54
2018-11-01T22:02:12.113Z,80.85
2018-11-01T22:04:38.413Z,81.00
2018-11-01T22:07:04.744Z,81.22
2018-11-01T22:09:31.111Z,81.23
2018-11-01T22:11:57.399Z,81.18
2018-11-01T22:14:23.722Z,81.76
2018-11-01T22:16:50.059Z,81.74
2018-11-01T22:19:16.356Z,81.93
2018-11-01T22:21:42.660Z,82.01
2018-11-01T22:24:08.960Z,82.15
2018-11-01T22:26:35.348Z,82.29
2018-11-01T22:29:01.750Z,82.15
2018-11-01T22:31:28.039Z,82.33
2018-11-01T22:33:54.357Z,82.19
2018-11-01T22:36:20.693Z,82.35
2018-11-01T22:38:47.035Z,82.46
2018-11-01T22:41:13.356Z,82.62
2018-11-01T22:43:39.665Z,82.58
2018-11-01T22:46:05.970Z,82.38
2018-11-01T22:48:32.308Z,82.46
2018-11-01T22:50:58.613Z,82.68
2018-11-01T22:53:24.938Z,82.95
2018-11-01T22:55:51.262Z,82.88
2018-11-01T22:58:17.595Z,82.94
2018-11-01T23:00:43.934Z,82.93
2018-11-01T23:03:10.238Z,83.09
2018-11-01T23:05:36.565Z,83.31
2018-11-01T23:08:02.871Z,83.37
2018-11-01T23:10:29.180Z,83.23
2018-11-01T23:12:55.491Z,83.47
2018-11-01T23:15:21.797Z,83.39
2018-11-01T23:17:48.105Z,83.53
2018-11-01T23:20:14.405Z,83.69
2018-11-01T23:22:40.715Z,83.85
2018-11-01T23:25:07.011Z,83.69
2018-11-01T23:27:33.312Z,84.02
2018-11-01T23:29:59.652Z,83.97
2018-11-01T23:32:25.955Z,84.05
2018-11-01T23:34:52.259Z,84.21
2018-11-01T23:37:18.574Z,84.25
2018-11-01T23:39:44.883Z,84.33
2018-11-01T23:42:11.186Z,84.35
2018-11-01T23:44:37.496Z,84.48
2018-11-01T23:47:03.802Z,84.29
2018-11-01T23:49:30.105Z,84.65
2018-11-01T23:51:56.430Z,84.71
2018-11-01T23:54:22.738Z,84.66
2018-11-01T23:56:49.041Z,84.80
2018-11-01T23:59:15.340Z,84.78
